Pagrindinis puslapis
METAR-TAF:

METAR-TAF

Oro uostai :

Russian Mission, Aliaska, Jungtinės Amerikos Valstijos

platuma: 61-46-30N, ilguma: 161-19-10W, Aukštis: 16 m

Dabartinis oras

Ataskaita buvo paskelbta 1 valandą ir 20 minutes, ne 20:56 UTC
Vėjas 6 kt iš Rytų/Šiaurės Rytų
Temperatūra 8°C
Drėgmė 66%
Slėgis 993 hPa
Matomumas: 16.1 km
Apsiniaukę ne aukštis 7000 ft

METAR: PARS 302056Z AUTO 06006KT 10SM OVC070 08/02 A2933 RMK AO2 SLP935 T00830022 56012 $

Laikas: 14:16 (22:16 UTC)


TAF: trūkstamas

Orai ataskaitas ir orų prognozės (METAR, TAF).

turimą stotys yra geltonos ir raudonos taškus žemėlapyje.

Perkelti pele per norėdami pamatyti stoties vardą.

Tada spustelėkite, norėdami matyti oro stebėjimo ir prognozės.

Norėdami pakeisti žemėlapį: spustelėkite ant žalios mygtukų su juodo kryžiaus žemyn,; žalią mygtuką su brūkšneliu, jei norite nutolinti; arba žalių rodyklių gretimoms žemėlapius.


METAR-TAF: